Morocco Star — CNA5167 — position and weather

sailwx.info

Track history (hours):
 
Tides and Currents Weather Stations Pressure Air Temp Water Temp Dewpoint Dewpoint Depression Visibility Wind Speed Wind Dir Waves Ship Positions

Morocco Star

Last reported at 2017-Oct-18 01:59 UTC. Time now 2017-Oct-18 02:23 UTC.
Position N 36°05' W 005°23'.

Length 152 m; draft 5 m.

Type: Passenger vessel. MMSI: 242579300.

Date/timePositionNaut miles runAvg speedWind from/ knotsBaromVisibWave heightAir tempDewpointWater temp
2017-Oct-18 01:59N 36°05' W 005°23'715.4
2017-Oct-18 01:31N 35°58' W 005°26'7 2.9
2017-Oct-17 23:14N 35°53' W 005°31'314.7
2017-Oct-17 23:00N 35°56' W 005°30'714.6
2017-Oct-17 22:30N 36°02' W 005°24'6 3.2
2017-Oct-17 20:34N 36°08' W 005°26'0 1.7
2017-Oct-17 20:30N 36°08' W 005°26'4 7.6
2017-Oct-17 20:00N 36°05' W 005°23'714.9
2017-Oct-17 19:30N 35°58' W 005°25'4 1.7
2017-Oct-17 16:58N 35°56' W 005°30'612.5
2017-Oct-17 16:30N 36°01' W 005°25'4 1.7
2017-Oct-17 13:56N 36°05' W 005°23'716.3
2017-Oct-17 13:31N 35°58' W 005°26'4 1.5
2017-Oct-17 11:06N 35°56' W 005°30'116.2
2017-Oct-17 11:01N 35°57' W 005°29'816.0
2017-Oct-17 10:29N 36°05' W 005°24'1 0.3
2017-Oct-17 07:48N 36°04' W 005°23'414.7
2017-Oct-17 07:31N 36°01' W 005°20'9 1.1
2017-Oct-16 22:53N 35°56' W 005°30'715.2
2017-Oct-16 22:28N 36°01' W 005°24'8 3.5
2017-Oct-16 20:11N 36°09' W 005°24'514.7
2017-Oct-16 19:51N 36°04' W 005°22'411.1
2017-Oct-16 19:30N 36°00' W 005°22'8 2.9
2017-Oct-16 16:55N 35°56' W 005°30'613.7
2017-Oct-16 16:30N 36°01' W 005°25'7 3.4
2017-Oct-16 14:18N 36°08' W 005°26'810.1
2017-Oct-16 13:30N 36°00' W 005°24'7 2.6
2017-Oct-16 10:56N 35°56' W 005°30'716.0
2017-Oct-16 10:30N 36°02' W 005°24'7 3.2
2017-Oct-16 08:15N 36°09' W 005°24'416.2
2017-Oct-16 08:00N 36°05' W 005°23'510.8
2017-Oct-16 07:30N 35°60' W 005°22'10 3.8
2017-Oct-16 05:00N 35°53' W 005°31'713.8
2017-Oct-16 04:30N 35°59' W 005°27'714.4
2017-Oct-16 04:00N 36°06' W 005°24'3 1.6
2017-Oct-16 02:19N 36°08' W 005°26'1 3.0
2017-Oct-16 02:00N 36°09' W 005°26'612.4
2017-Oct-16 01:30N 36°03' W 005°23'815.8
2017-Oct-16 01:01N 35°57' W 005°28'4 3.0
2017-Oct-15 23:33N 35°53' W 005°31'110.4
2017-Oct-15 23:29N 35°54' W 005°31'3 4.6
2017-Oct-15 22:56N 35°56' W 005°30'615.3
2017-Oct-15 22:30N 36°01' W 005°24'815.2
2017-Oct-15 22:00N 36°08' W 005°24'1 0.8
2017-Oct-15 20:22N 36°08' W 005°26'2 4.5
2017-Oct-15 20:00N 36°09' W 005°24'814.9
2017-Oct-15 19:30N 36°01' W 005°23'815.7
2017-Oct-15 19:00N 35°56' W 005°30'3 1.7
2017-Oct-15 17:19N 35°53' W 005°31'3 8.9
2017-Oct-15 16:58N 35°56' W 005°30'714.3
2017-Oct-15 16:31N 36°01' W 005°25'7 2.8
2017-Oct-15 14:00N 36°08' W 005°26'5 9.3
2017-Oct-15 13:30N 36°04' W 005°23'815.3
2017-Oct-15 13:00N 35°58' W 005°28'2 1.0
2017-Oct-15 10:48N 35°56' W 005°29'515.8
2017-Oct-15 10:30N 36°00' W 005°27'8 3.2
2017-Oct-15 08:07N 36°08' W 005°26'0 4.3
2017-Oct-15 08:00N 36°08' W 005°26'510.6
2017-Oct-15 07:30N 36°04' W 005°24'815.7
2017-Oct-15 07:00N 35°57' W 005°28'1 0.6
2017-Oct-15 04:45N 35°56' W 005°30'415.7
2017-Oct-15 04:29N 35°60' W 005°27'815.8
2017-Oct-15 03:59N 36°07' W 005°24'3 1.6
2017-Oct-15 01:54N 36°04' W 005°23'616.0
2017-Oct-15 01:30N 35°58' W 005°26'7 3.6
2017-Oct-14 23:38N 35°53' W 005°31'313.9
2017-Oct-14 23:24N 35°56' W 005°30'615.9
2017-Oct-14 23:00N 36°01' W 005°26'814.6
2017-Oct-14 22:29N 36°09' W 005°26'1 0.9
2017-Oct-14 21:12N 36°08' W 005°26'1 3.4
2017-Oct-14 20:53N 36°09' W 005°26'511.9
2017-Oct-14 20:30N 36°05' W 005°23'815.4
2017-Oct-14 20:00N 35°58' W 005°27'3 0.9
2017-Oct-14 16:48N 35°56' W 005°30'415.1
2017-Oct-14 16:31N 35°60' W 005°27'8 4.6
2017-Oct-14 14:42N 36°08' W 005°26'0 0.0
2017-Oct-14 14:14N 36°08' W 005°26'1 4.0
2017-Oct-14 14:00N 36°09' W 005°26'611.6
2017-Oct-14 13:30N 36°04' W 005°23'917.2
2017-Oct-14 13:00N 35°56' W 005°29'1 0.5
2017-Oct-14 10:38N 35°56' W 005°30'216.3
2017-Oct-14 10:31N 35°58' W 005°29'815.4
2017-Oct-14 10:00N 36°04' W 005°23'5 2.3
2017-Oct-14 08:00N 36°09' W 005°25'815.0
2017-Oct-14 07:27N 36°01' W 005°25'714.7
2017-Oct-14 07:00N 35°57' W 005°31'4 1.9
2017-Oct-14 04:54N 35°53' W 005°31'514.1
2017-Oct-14 04:30N 35°58' W 005°29'815.7
2017-Oct-14 04:00N 36°05' W 005°24'4 2.8
2017-Oct-14 02:40N 36°08' W 005°26'1 5.7
2017-Oct-14 02:26N 36°09' W 005°25'613.6
2017-Oct-14 02:00N 36°03' W 005°24'815.4
2017-Oct-14 01:30N 35°57' W 005°29'4 1.5
2017-Oct-13 22:53N 35°53' W 005°31'615.3
2017-Oct-13 22:30N 35°58' W 005°28'815.7
2017-Oct-13 22:00N 36°05' W 005°24'4 2.0
2017-Oct-13 20:08N 36°09' W 005°25'415.7
2017-Oct-13 19:53N 36°05' W 005°23'615.6
2017-Oct-13 19:30N 35°59' W 005°24'815.8
2017-Oct-13 19:00N 35°53' W 005°31'3 1.4
2017-Oct-13 16:47N 35°56' W 005°30'415.6
2017-Oct-13 16:30N 35°60' W 005°27'4 1.4
2017-Oct-13 13:25N 36°03' W 005°23'717.7
2017-Oct-13 13:00N 35°57' W 005°28'2 0.8
2017-Oct-13 10:43N 35°56' W 005°30'314.6
2017-Oct-13 10:30N 35°59' W 005°28'8 2.6
2017-Oct-13 07:34N 36°05' W 005°24'316.8
2017-Oct-13 07:22N 36°02' W 005°24'616.0
2017-Oct-13 07:00N 35°57' W 005°28'5 2.3
2017-Oct-13 04:56N 35°53' W 005°31'615.3
2017-Oct-13 04:30N 35°59' W 005°28'815.8
2017-Oct-13 04:00N 36°06' W 005°24'3 1.9
2017-Oct-13 02:38N 36°08' W 005°26'0 0.1
2017-Oct-13 02:09N 36°08' W 005°26'1 3.7
2017-Oct-13 01:59N 36°09' W 005°26'5 9.7
2017-Oct-13 01:30N 36°05' W 005°23'816.0
2017-Oct-13 01:00N 35°57' W 005°27'5 2.7
2017-Oct-12 23:00N 35°53' W 005°31'714.3
2017-Oct-12 22:30N 35°59' W 005°27'815.5
2017-Oct-12 22:00N 36°07' W 005°24'2 1.7
2017-Oct-12 20:41N 36°08' W 005°26'0 1.1
2017-Oct-12 20:30N 36°08' W 005°26'2 3.8
2017-Oct-12 19:58N 36°07' W 005°24'715.7
2017-Oct-12 19:30N 36°00' W 005°24'816.1
2017-Oct-12 18:59N 35°54' W 005°31'0 0.2
2017-Oct-12 17:01N 35°54' W 005°31'012.2
2017-Oct-12 17:00N 35°54' W 005°31'815.7
2017-Oct-12 16:30N 36°00' W 005°26'8 3.5
2017-Oct-12 14:23N 36°08' W 005°26'2 4.0
2017-Oct-12 14:00N 36°08' W 005°24'815.8
2017-Oct-12 13:30N 36°00' W 005°25'916.7
2017-Oct-12 12:59N 35°53' W 005°31'0 0.0
2017-Oct-12 11:17N 35°53' W 005°31'413.5
2017-Oct-12 11:00N 35°57' W 005°29'815.4
2017-Oct-12 10:30N 36°03' W 005°24'6 2.7
2017-Oct-12 08:25N 36°09' W 005°25'614.4
2017-Oct-12 08:01N 36°03' W 005°23'815.7
2017-Oct-12 07:31N 35°57' W 005°29'2 0.8
2017-Oct-12 05:28N 35°56' W 005°30'715.8
2017-Oct-12 05:00N 36°02' W 005°25'714.0
2017-Oct-12 04:30N 36°09' W 005°25'1 0.7
2017-Oct-12 02:54N 36°08' W 005°26'1 2.9
2017-Oct-12 02:29N 36°09' W 005°26'511.1
2017-Oct-12 02:01N 36°04' W 005°23'815.4
2017-Oct-12 01:31N 35°58' W 005°28'5 2.5
2017-Oct-11 23:37N 35°53' W 005°31'313.3
2017-Oct-11 23:24N 35°56' W 005°30'615.9
2017-Oct-11 23:01N 36°01' W 005°26'714.9
2017-Oct-11 22:30N 36°09' W 005°25'1 0.9
2017-Oct-11 21:07N 36°08' W 005°26'0 0.1
2017-Oct-11 20:52N 36°08' W 005°26'2 4.4
2017-Oct-11 20:31N 36°09' W 005°25'5 9.9
2017-Oct-11 20:01N 36°05' W 005°23'816.0
2017-Oct-11 19:30N 35°57' W 005°27'2 0.9
2017-Oct-11 16:53N 35°56' W 005°30'3 0.2
2017-Oct-10 23:17N 35°54' W 005°31'413.6
2017-Oct-10 23:00N 35°57' W 005°29'915.6
2017-Oct-10 22:26N 36°05' W 005°24'3 1.2
2017-Oct-10 19:59N 36°08' W 005°24'815.6
2017-Oct-10 19:29N 36°00' W 005°25'816.2
2017-Oct-10 19:00N 35°54' W 005°31'2 1.1
2017-Oct-10 16:54N 35°56' W 005°30'615.2
2017-Oct-10 16:30N 36°00' W 005°25'6 1.9
2017-Oct-10 13:37N 36°06' W 005°23'216.1
2017-Oct-10 13:30N 36°04' W 005°23'816.2
2017-Oct-10 13:01N 35°57' W 005°28'2 1.0
2017-Oct-10 10:45N 35°56' W 005°31'314.3
2017-Oct-10 10:30N 35°59' W 005°28'714.3
2017-Oct-10 10:01N 36°05' W 005°24'  
Track history (hours):
 
Tides and Currents Weather Stations Pressure Air Temp Water Temp Dewpoint Dewpoint Depression Visibility Wind Speed Wind Dir Waves Ship Positions

Morocco Star

Last reported at 2017-Oct-18 01:59 UTC. Time now 2017-Oct-18 02:23 UTC.
Position N 36°05' W 005°23'.

Length 152 m; draft 5 m.

Type: Passenger vessel. MMSI: 242579300.

Date/timePositionNaut miles runAvg speedWind from/ knotsBaromVisibWave heightAir tempDewpointWater temp
2017-Oct-18 01:59N 36°05' W 005°23'715.4
2017-Oct-18 01:31N 35°58' W 005°26'7 2.9
2017-Oct-17 23:14N 35°53' W 005°31'314.7
2017-Oct-17 23:00N 35°56' W 005°30'714.6
2017-Oct-17 22:30N 36°02' W 005°24'6 3.2
2017-Oct-17 20:34N 36°08' W 005°26'0 1.7
2017-Oct-17 20:30N 36°08' W 005°26'4 7.6
2017-Oct-17 20:00N 36°05' W 005°23'714.9
2017-Oct-17 19:30N 35°58' W 005°25'4 1.7
2017-Oct-17 16:58N 35°56' W 005°30'612.5
2017-Oct-17 16:30N 36°01' W 005°25'4 1.7
2017-Oct-17 13:56N 36°05' W 005°23'716.3
2017-Oct-17 13:31N 35°58' W 005°26'4 1.5
2017-Oct-17 11:06N 35°56' W 005°30'116.2
2017-Oct-17 11:01N 35°57' W 005°29'816.0
2017-Oct-17 10:29N 36°05' W 005°24'1 0.3
2017-Oct-17 07:48N 36°04' W 005°23'414.7
2017-Oct-17 07:31N 36°01' W 005°20'9 1.1
2017-Oct-16 22:53N 35°56' W 005°30'715.2
2017-Oct-16 22:28N 36°01' W 005°24'8 3.5
2017-Oct-16 20:11N 36°09' W 005°24'514.7
2017-Oct-16 19:51N 36°04' W 005°22'411.1
2017-Oct-16 19:30N 36°00' W 005°22'8 2.9
2017-Oct-16 16:55N 35°56' W 005°30'613.7
2017-Oct-16 16:30N 36°01' W 005°25'7 3.4
2017-Oct-16 14:18N 36°08' W 005°26'810.1
2017-Oct-16 13:30N 36°00' W 005°24'7 2.6
2017-Oct-16 10:56N 35°56' W 005°30'716.0
2017-Oct-16 10:30N 36°02' W 005°24'7 3.2
2017-Oct-16 08:15N 36°09' W 005°24'416.2
2017-Oct-16 08:00N 36°05' W 005°23'510.8
2017-Oct-16 07:30N 35°60' W 005°22'10 3.8
2017-Oct-16 05:00N 35°53' W 005°31'713.8
2017-Oct-16 04:30N 35°59' W 005°27'714.4
2017-Oct-16 04:00N 36°06' W 005°24'3 1.6
2017-Oct-16 02:19N 36°08' W 005°26'1 3.0
2017-Oct-16 02:00N 36°09' W 005°26'612.4
2017-Oct-16 01:30N 36°03' W 005°23'815.8
2017-Oct-16 01:01N 35°57' W 005°28'4 3.0
2017-Oct-15 23:33N 35°53' W 005°31'110.4
2017-Oct-15 23:29N 35°54' W 005°31'3 4.6
2017-Oct-15 22:56N 35°56' W 005°30'615.3
2017-Oct-15 22:30N 36°01' W 005°24'815.2
2017-Oct-15 22:00N 36°08' W 005°24'1 0.8
2017-Oct-15 20:22N 36°08' W 005°26'2 4.5
2017-Oct-15 20:00N 36°09' W 005°24'814.9
2017-Oct-15 19:30N 36°01' W 005°23'815.7
2017-Oct-15 19:00N 35°56' W 005°30'3 1.7
2017-Oct-15 17:19N 35°53' W 005°31'3 8.9
2017-Oct-15 16:58N 35°56' W 005°30'714.3
2017-Oct-15 16:31N 36°01' W 005°25'7 2.8
2017-Oct-15 14:00N 36°08' W 005°26'5 9.3
2017-Oct-15 13:30N 36°04' W 005°23'815.3
2017-Oct-15 13:00N 35°58' W 005°28'2 1.0
2017-Oct-15 10:48N 35°56' W 005°29'515.8
2017-Oct-15 10:30N 36°00' W 005°27'8 3.2
2017-Oct-15 08:07N 36°08' W 005°26'0 4.3
2017-Oct-15 08:00N 36°08' W 005°26'510.6
2017-Oct-15 07:30N 36°04' W 005°24'815.7
2017-Oct-15 07:00N 35°57' W 005°28'1 0.6
2017-Oct-15 04:45N 35°56' W 005°30'415.7
2017-Oct-15 04:29N 35°60' W 005°27'815.8
2017-Oct-15 03:59N 36°07' W 005°24'3 1.6
2017-Oct-15 01:54N 36°04' W 005°23'616.0
2017-Oct-15 01:30N 35°58' W 005°26'7 3.6
2017-Oct-14 23:38N 35°53' W 005°31'313.9
2017-Oct-14 23:24N 35°56' W 005°30'615.9
2017-Oct-14 23:00N 36°01' W 005°26'814.6
2017-Oct-14 22:29N 36°09' W 005°26'1 0.9
2017-Oct-14 21:12N 36°08' W 005°26'1 3.4
2017-Oct-14 20:53N 36°09' W 005°26'511.9
2017-Oct-14 20:30N 36°05' W 005°23'815.4
2017-Oct-14 20:00N 35°58' W 005°27'3 0.9
2017-Oct-14 16:48N 35°56' W 005°30'415.1
2017-Oct-14 16:31N 35°60' W 005°27'8 4.6
2017-Oct-14 14:42N 36°08' W 005°26'0 0.0
2017-Oct-14 14:14N 36°08' W 005°26'1 4.0
2017-Oct-14 14:00N 36°09' W 005°26'611.6
2017-Oct-14 13:30N 36°04' W 005°23'917.2
2017-Oct-14 13:00N 35°56' W 005°29'1 0.5
2017-Oct-14 10:38N 35°56' W 005°30'216.3
2017-Oct-14 10:31N 35°58' W 005°29'815.4
2017-Oct-14 10:00N 36°04' W 005°23'5 2.3
2017-Oct-14 08:00N 36°09' W 005°25'815.0
2017-Oct-14 07:27N 36°01' W 005°25'714.7
2017-Oct-14 07:00N 35°57' W 005°31'4 1.9
2017-Oct-14 04:54N 35°53' W 005°31'514.1
2017-Oct-14 04:30N 35°58' W 005°29'815.7
2017-Oct-14 04:00N 36°05' W 005°24'4 2.8
2017-Oct-14 02:40N 36°08' W 005°26'1 5.7
2017-Oct-14 02:26N 36°09' W 005°25'613.6
2017-Oct-14 02:00N 36°03' W 005°24'815.4
2017-Oct-14 01:30N 35°57' W 005°29'4 1.5
2017-Oct-13 22:53N 35°53' W 005°31'615.3
2017-Oct-13 22:30N 35°58' W 005°28'815.7
2017-Oct-13 22:00N 36°05' W 005°24'4 2.0
2017-Oct-13 20:08N 36°09' W 005°25'415.7
2017-Oct-13 19:53N 36°05' W 005°23'615.6
2017-Oct-13 19:30N 35°59' W 005°24'815.8
2017-Oct-13 19:00N 35°53' W 005°31'3 1.4
2017-Oct-13 16:47N 35°56' W 005°30'415.6
2017-Oct-13 16:30N 35°60' W 005°27'4 1.4
2017-Oct-13 13:25N 36°03' W 005°23'717.7
2017-Oct-13 13:00N 35°57' W 005°28'2 0.8
2017-Oct-13 10:43N 35°56' W 005°30'314.6
2017-Oct-13 10:30N 35°59' W 005°28'8 2.6
2017-Oct-13 07:34N 36°05' W 005°24'316.8
2017-Oct-13 07:22N 36°02' W 005°24'616.0
2017-Oct-13 07:00N 35°57' W 005°28'5 2.3
2017-Oct-13 04:56N 35°53' W 005°31'615.3
2017-Oct-13 04:30N 35°59' W 005°28'815.8
2017-Oct-13 04:00N 36°06' W 005°24'3 1.9
2017-Oct-13 02:38N 36°08' W 005°26'0 0.1
2017-Oct-13 02:09N 36°08' W 005°26'1 3.7
2017-Oct-13 01:59N 36°09' W 005°26'5 9.7
2017-Oct-13 01:30N 36°05' W 005°23'816.0
2017-Oct-13 01:00N 35°57' W 005°27'5 2.7
2017-Oct-12 23:00N 35°53' W 005°31'714.3
2017-Oct-12 22:30N 35°59' W 005°27'815.5
2017-Oct-12 22:00N 36°07' W 005°24'2 1.7
2017-Oct-12 20:41N 36°08' W 005°26'0 1.1
2017-Oct-12 20:30N 36°08' W 005°26'2 3.8
2017-Oct-12 19:58N 36°07' W 005°24'715.7
2017-Oct-12 19:30N 36°00' W 005°24'816.1
2017-Oct-12 18:59N 35°54' W 005°31'0 0.2
2017-Oct-12 17:01N 35°54' W 005°31'012.2
2017-Oct-12 17:00N 35°54' W 005°31'815.7
2017-Oct-12 16:30N 36°00' W 005°26'8 3.5
2017-Oct-12 14:23N 36°08' W 005°26'2 4.0
2017-Oct-12 14:00N 36°08' W 005°24'815.8
2017-Oct-12 13:30N 36°00' W 005°25'916.7
2017-Oct-12 12:59N 35°53' W 005°31'0 0.0
2017-Oct-12 11:17N 35°53' W 005°31'413.5
2017-Oct-12 11:00N 35°57' W 005°29'815.4
2017-Oct-12 10:30N 36°03' W 005°24'6 2.7
2017-Oct-12 08:25N 36°09' W 005°25'614.4
2017-Oct-12 08:01N 36°03' W 005°23'815.7
2017-Oct-12 07:31N 35°57' W 005°29'2 0.8
2017-Oct-12 05:28N 35°56' W 005°30'715.8
2017-Oct-12 05:00N 36°02' W 005°25'714.0
2017-Oct-12 04:30N 36°09' W 005°25'1 0.7
2017-Oct-12 02:54N 36°08' W 005°26'1 2.9
2017-Oct-12 02:29N 36°09' W 005°26'511.1
2017-Oct-12 02:01N 36°04' W 005°23'815.4
2017-Oct-12 01:31N 35°58' W 005°28'5 2.5
2017-Oct-11 23:37N 35°53' W 005°31'313.3
2017-Oct-11 23:24N 35°56' W 005°30'615.9
2017-Oct-11 23:01N 36°01' W 005°26'714.9
2017-Oct-11 22:30N 36°09' W 005°25'1 0.9
2017-Oct-11 21:07N 36°08' W 005°26'0 0.1
2017-Oct-11 20:52N 36°08' W 005°26'2 4.4
2017-Oct-11 20:31N 36°09' W 005°25'5 9.9
2017-Oct-11 20:01N 36°05' W 005°23'816.0
2017-Oct-11 19:30N 35°57' W 005°27'2 0.9
2017-Oct-11 16:53N 35°56' W 005°30'3 0.2
2017-Oct-10 23:17N 35°54' W 005°31'413.6
2017-Oct-10 23:00N 35°57' W 005°29'915.6
2017-Oct-10 22:26N 36°05' W 005°24'3 1.2
2017-Oct-10 19:59N 36°08' W 005°24'815.6
2017-Oct-10 19:29N 36°00' W 005°25'816.2
2017-Oct-10 19:00N 35°54' W 005°31'2 1.1
2017-Oct-10 16:54N 35°56' W 005°30'615.2
2017-Oct-10 16:30N 36°00' W 005°25'6 1.9
2017-Oct-10 13:37N 36°06' W 005°23'216.1
2017-Oct-10 13:30N 36°04' W 005°23'816.2
2017-Oct-10 13:01N 35°57' W 005°28'2 1.0
2017-Oct-10 10:45N 35°56' W 005°31'314.3
2017-Oct-10 10:30N 35°59' W 005°28'714.3
2017-Oct-10 10:01N 36°05' W 005°24'  

Dump ship's entire track history